Terminal Aerodrome Forecast
Issued by NWS Wilmington, NC

Home | Current Version | Previous Version | Text Only | Print | Product List | Glossary On
Versions: 1 2 3 4 5 6 7 8 9 10 11 12 13 14 15
000
FTUS42 KILM 191700
TAFMYR
TAF
KMYR 191721Z 1918/2018 02015G22KT P6SM VCSH OVC008
     FM200100 02010G18KT 4SM -RA BR OVC007
     FM200600 03015G25KT 6SM -RA OVC007
     FM200900 02015G30KT P6SM -RA SCT007 OVC010=

USA.gov is the U.S. government's official web portal to all federal, state and local government web resources and services.